Elna, Kentucky
Current Conditions -  °F | °C
As of 10:35 PM on Sunday 23 Nov 2014 (Local Time) from KSJS Reporting Station
Broken Clouds Broken Clouds  
Wind Chill: 61°   Ceiling: 5000
Heat Index: 61°   Visibility: 10mi
Dew Point: 53°   Wind: 17mph
Humidity: 75%   Direction: 170°S
Pressure: 29.48"   Gusts: 23mph
Location:  37.9467°N, 82.8859°W
Report Text: KSJS 240335Z AUTO 17015G20KT 10SM BKN050 BKN065 16/12 A2948 RMK AO2 T01600116
Loading
Personal Weather Stations






























Interactive Weather Map New forecast layout! Learn more

10-Day Weather Forecast

Advertisements
Track Severe Weather on mobile